Time;durP1;ratioP1;P1;durP2;ratioP2;P2;SDS_P1;SDS_P2;PMS_P1;PMS_P2;Temp;Humidity;BMP_temperature;BMP_pressure;BME280_temperature;BME280_humidity;BME280_pressure;Samples;Min_cycle;Max_cycle;Signal;HPM_P1;HPM_P2
2022/04/18 00:00:50;;;;;;;0.90;0.90;;;;;;;;;;5038194;28;20227;-87
2022/04/18 00:03:19;;;;;;;3.00;2.70;;;;;;;;;;5020398;28;20289;-86
2022/04/18 00:05:47;;;;;;;1.20;1.20;;;;;;;;;;5020145;28;20317;-87
2022/04/18 00:08:16;;;;;;;0.87;0.87;;;;;;;;;;5020227;28;20213;-87
2022/04/18 00:10:45;;;;;;;2.00;1.90;;;;;;;;;;5020455;28;20290;-87
2022/04/18 00:13:13;;;;;;;3.33;2.87;;;;;;;;;;5037501;28;20294;-87
2022/04/18 00:15:44;;;;;;;3.17;1.83;;;;;;;;;;5020252;28;20210;-86
2022/04/18 00:18:12;;;;;;;1.57;1.47;;;;;;;;;;5020521;28;20202;-87
2022/04/18 00:20:41;;;;;;;6.47;1.97;;;;;;;;;;5019925;28;20195;-87
2022/04/18 00:23:09;;;;;;;2.63;2.43;;;;;;;;;;5020068;28;20214;-87
2022/04/18 00:25:38;;;;;;;2.23;2.10;;;;;;;;;;5037871;28;20199;-87
2022/04/18 00:28:06;;;;;;;2.90;1.63;;;;;;;;;;5021153;28;20205;-87
2022/04/18 00:30:35;;;;;;;1.97;1.87;;;;;;;;;;5019813;28;20298;-87
2022/04/18 00:33:06;;;;;;;2.07;1.87;;;;;;;;;;5019527;28;20211;-87
2022/04/18 00:35:35;;;;;;;1.83;1.13;;;;;;;;;;5020090;28;20202;-87
2022/04/18 00:38:04;;;;;;;1.97;1.97;;;;;;;;;;5020491;28;20226;-87
2022/04/18 00:40:32;;;;;;;1.57;1.50;;;;;;;;;;5019611;28;20207;-87
2022/04/18 00:43:04;;;;;;;1.10;1.10;;;;;;;;;;5020563;28;20262;-87
2022/04/18 00:45:33;;;;;;;3.00;2.80;;;;;;;;;;5020518;28;20218;-87
2022/04/18 00:48:02;;;;;;;1.60;1.60;;;;;;;;;;5030291;28;20194;-87
2022/04/18 00:50:33;;;;;;;2.40;2.20;;;;;;;;;;5040006;28;20212;-87
2022/04/18 00:53:02;;;;;;;1.47;1.40;;;;;;;;;;5040386;28;20232;-87
2022/04/18 00:55:31;;;;;;;2.40;2.00;;;;;;;;;;5039627;28;20309;-87
2022/04/18 00:58:01;;;;;;;2.53;2.33;;;;;;;;;;5041209;28;20305;-87
2022/04/18 01:00:30;;;;;;;2.30;2.20;;;;;;;;;;5040760;28;20214;-87
2022/04/18 01:02:58;;;;;;;5.13;4.10;;;;;;;;;;5040127;28;20230;-86
2022/04/18 01:05:27;;;;;;;3.00;2.70;;;;;;;;;;5041143;28;20254;-87
2022/04/18 01:07:57;;;;;;;4.50;4.03;;;;;;;;;;5040881;28;20204;-87
2022/04/18 01:10:25;;;;;;;7.67;5.00;;;;;;;;;;5040230;28;20211;-86
2022/04/18 01:12:54;;;;;;;3.53;2.97;;;;;;;;;;5039899;28;20271;-87
2022/04/18 01:15:22;;;;;;;3.53;2.97;;;;;;;;;;5039464;28;20206;-87
2022/04/18 01:17:51;;;;;;;2.23;2.13;;;;;;;;;;5039470;28;20198;-87
2022/04/18 01:20:19;;;;;;;2.13;2.03;;;;;;;;;;5039436;28;20295;-87
2022/04/18 01:22:51;;;;;;;2.40;2.30;;;;;;;;;;5040467;28;20231;-86
2022/04/18 01:30:57;;;;;;;4.93;4.60;;;;;;;;;;5056980;28;20285;-88
2022/04/18 01:33:26;;;;;;;3.93;3.53;;;;;;;;;;5056264;28;20197;-86
2022/04/18 01:35:54;;;;;;;1.00;1.00;;;;;;;;;;5039014;28;20211;-87
2022/04/18 01:38:24;;;;;;;1.70;1.63;;;;;;;;;;5039558;28;20296;-86
2022/04/18 01:40:53;;;;;;;1.47;1.37;;;;;;;;;;5039379;28;20191;-87
2022/04/18 01:43:21;;;;;;;20.97;5.10;;;;;;;;;;5057015;28;20228;-86
2022/04/18 01:45:50;;;;;;;4.23;2.83;;;;;;;;;;5039499;28;20205;-86
2022/04/18 01:48:18;;;;;;;2.13;1.97;;;;;;;;;;5027442;28;20211;-86
2022/04/18 01:50:47;;;;;;;3.30;3.00;;;;;;;;;;5030159;28;20646;-87
2022/04/18 01:53:16;;;;;;;3.97;3.60;;;;;;;;;;5039229;28;20201;-87
2022/04/18 01:55:45;;;;;;;4.20;3.33;;;;;;;;;;5023997;28;20226;-86
2022/04/18 01:58:14;;;;;;;4.43;3.00;;;;;;;;;;5020722;28;20199;-87
2022/04/18 02:00:42;;;;;;;7.73;5.07;;;;;;;;;;5038920;28;20205;-86
2022/04/18 02:03:11;;;;;;;6.03;3.83;;;;;;;;;;5039032;28;20220;-86
2022/04/18 02:05:42;;;;;;;5.03;4.43;;;;;;;;;;5038962;28;20259;-87
2022/04/18 02:08:11;;;;;;;3.23;2.90;;;;;;;;;;5027201;28;20240;-86
2022/04/18 02:10:40;;;;;;;8.83;4.37;;;;;;;;;;5019785;28;20236;-87
2022/04/18 02:13:10;;;;;;;4.57;4.17;;;;;;;;;;5019178;28;20248;-87
2022/04/18 02:15:39;;;;;;;4.03;3.77;;;;;;;;;;5018832;28;20199;-86
2022/04/18 02:18:08;;;;;;;2.07;1.97;;;;;;;;;;5019346;28;20211;-86
2022/04/18 02:20:37;;;;;;;3.17;2.97;;;;;;;;;;5020238;28;20230;-87
2022/04/18 02:23:06;;;;;;;4.03;2.40;;;;;;;;;;5019228;28;20280;-87
2022/04/18 02:25:35;;;;;;;4.43;3.80;;;;;;;;;;5019324;28;20214;-86
2022/04/18 02:28:04;;;;;;;3.47;3.17;;;;;;;;;;5019169;28;20213;-86
2022/04/18 02:30:34;;;;;;;3.77;3.37;;;;;;;;;;5019997;28;20285;-86
2022/04/18 02:33:03;;;;;;;2.90;2.73;;;;;;;;;;5019228;28;20228;-87
2022/04/18 02:35:31;;;;;;;4.10;3.80;;;;;;;;;;5019200;28;20215;-87
2022/04/18 02:38:00;;;;;;;2.67;2.43;;;;;;;;;;5037391;28;20291;-87
2022/04/18 02:40:28;;;;;;;0.70;0.70;;;;;;;;;;5019698;28;20304;-87
2022/04/18 02:42:57;;;;;;;1.13;1.13;;;;;;;;;;5019186;28;20231;-87
2022/04/18 02:45:27;;;;;;;6.43;5.63;;;;;;;;;;5021949;28;20686;-86
2022/04/18 02:47:57;;;;;;;7.63;6.57;;;;;;;;;;5024134;28;20199;-86
2022/04/18 02:50:26;;;;;;;8.57;7.10;;;;;;;;;;5023766;28;20204;-86
2022/04/18 02:52:55;;;;;;;8.57;6.60;;;;;;;;;;5023613;28;20202;-86
2022/04/18 02:55:25;;;;;;;2.47;2.23;;;;;;;;;;5023194;28;20199;-86
2022/04/18 02:57:54;;;;;;;2.67;2.03;;;;;;;;;;5023931;28;20195;-86
2022/04/18 03:00:22;;;;;;;1.37;1.33;;;;;;;;;;5023099;28;20237;-86
2022/04/18 03:02:51;;;;;;;18.03;2.83;;;;;;;;;;5022847;28;20264;-86
2022/04/18 03:05:21;;;;;;;2.77;2.60;;;;;;;;;;5039596;28;20226;-87
2022/04/18 03:07:49;;;;;;;6.60;6.00;;;;;;;;;;5039451;28;20201;-86
2022/04/18 03:11:02;;;;;;;6.63;5.93;;;;;;;;;;5039598;28;20230;-87
2022/04/18 03:13:07;;;;;;;5.17;4.77;;;;;;;;;;5038752;28;20269;-86
2022/04/18 03:15:35;;;;;;;7.80;6.33;;;;;;;;;;5023392;28;20195;-86
2022/04/18 03:18:04;;;;;;;9.80;5.33;;;;;;;;;;5040278;28;20206;-86
2022/04/18 03:20:34;;;;;;;5.40;4.07;;;;;;;;;;5039777;28;20249;-86
2022/04/18 03:23:03;;;;;;;6.77;6.00;;;;;;;;;;5039214;28;20310;-86
2022/04/18 03:25:31;;;;;;;8.97;6.17;;;;;;;;;;5023513;28;20203;-87
2022/04/18 03:28:00;;;;;;;8.10;5.97;;;;;;;;;;5040144;28;20197;-86
2022/04/18 03:30:29;;;;;;;6.57;5.40;;;;;;;;;;5039529;28;20211;-86
2022/04/18 03:32:58;;;;;;;6.53;5.83;;;;;;;;;;5023156;28;20240;-86
2022/04/18 03:35:26;;;;;;;4.23;3.83;;;;;;;;;;5023228;28;20217;-86
2022/04/18 03:40:43;;;;;;;5.80;5.27;;;;;;;;;;5039907;28;20238;-86
2022/04/18 03:43:11;;;;;;;6.57;5.20;;;;;;;;;;5022320;28;20295;-86
2022/04/18 03:45:40;;;;;;;4.73;4.10;;;;;;;;;;5022792;28;20297;-86
2022/04/18 03:48:09;;;;;;;4.07;3.67;;;;;;;;;;5038712;28;20213;-86
2022/04/18 03:50:37;;;;;;;6.87;4.90;;;;;;;;;;5039628;28;20201;-86
2022/04/18 03:53:07;;;;;;;8.10;6.30;;;;;;;;;;5039266;28;20213;-86
2022/04/18 03:55:36;;;;;;;6.30;5.70;;;;;;;;;;5022569;28;20199;-86
2022/04/18 03:58:05;;;;;;;5.77;5.17;;;;;;;;;;5038011;28;20217;-86
2022/04/18 04:00:35;;;;;;;5.67;5.07;;;;;;;;;;5022763;28;20331;-86
2022/04/18 04:03:03;;;;;;;4.40;3.57;;;;;;;;;;5022247;28;20218;-86
2022/04/18 04:05:32;;;;;;;5.00;4.03;;;;;;;;;;5022539;28;20219;-86
2022/04/18 04:08:00;;;;;;;6.80;6.20;;;;;;;;;;5022419;28;20245;-87
2022/04/18 04:10:30;;;;;;;10.20;9.10;;;;;;;;;;5021746;28;20205;-86
2022/04/18 04:12:59;;;;;;;6.93;6.33;;;;;;;;;;5022420;28;20234;-86
2022/04/18 04:15:28;;;;;;;6.87;6.17;;;;;;;;;;5022609;28;20206;-86
2022/04/18 04:17:56;;;;;;;6.90;6.13;;;;;;;;;;5022772;28;20201;-86
2022/04/18 04:20:25;;;;;;;6.77;6.00;;;;;;;;;;5022684;28;20216;-86
2022/04/18 04:22:53;;;;;;;7.00;6.30;;;;;;;;;;5039656;28;20232;-86
2022/04/18 04:25:22;;;;;;;7.23;6.50;;;;;;;;;;5022348;28;20211;-87
2022/04/18 04:27:52;;;;;;;7.47;6.47;;;;;;;;;;5022684;28;20228;-86
2022/04/18 04:30:20;;;;;;;8.13;7.40;;;;;;;;;;5022760;28;20302;-86
2022/04/18 04:32:50;;;;;;;6.77;6.10;;;;;;;;;;5022979;28;20209;-86
2022/04/18 04:35:19;;;;;;;7.13;6.43;;;;;;;;;;5022668;28;20255;-86
2022/04/18 04:37:48;;;;;;;5.57;5.07;;;;;;;;;;5021925;28;20205;-87
2022/04/18 04:40:17;;;;;;;6.27;5.77;;;;;;;;;;5022017;28;20269;-86
2022/04/18 04:42:45;;;;;;;8.13;5.93;;;;;;;;;;5022114;28;20212;-87
2022/04/18 04:45:16;;;;;;;5.97;5.37;;;;;;;;;;5022578;28;20206;-86
2022/04/18 04:47:45;;;;;;;6.30;5.77;;;;;;;;;;5022658;28;20244;-86
2022/04/18 04:50:14;;;;;;;6.90;6.30;;;;;;;;;;5022857;28;20201;-86
2022/04/18 04:52:43;;;;;;;7.00;6.27;;;;;;;;;;5022724;28;20291;-87
2022/04/18 04:55:16;;;;;;;7.43;6.73;;;;;;;;;;5022435;28;20269;-86
2022/04/18 04:57:45;;;;;;;7.10;6.40;;;;;;;;;;5021544;28;20233;-87
2022/04/18 05:00:14;;;;;;;6.77;6.07;;;;;;;;;;5021593;28;20204;-86
2022/04/18 05:02:44;;;;;;;6.93;6.33;;;;;;;;;;5021105;28;20205;-87
2022/04/18 05:05:13;;;;;;;6.57;6.00;;;;;;;;;;5021712;28;20233;-86
2022/04/18 05:07:42;;;;;;;7.43;6.83;;;;;;;;;;5020999;28;20206;-87
2022/04/18 05:10:11;;;;;;;7.17;6.57;;;;;;;;;;5038583;28;20212;-86
2022/04/18 05:12:39;;;;;;;7.87;6.77;;;;;;;;;;5020969;28;20224;-86
2022/04/18 05:15:08;;;;;;;7.53;6.73;;;;;;;;;;5038449;28;20216;-87
2022/04/18 05:17:37;;;;;;;5.17;4.77;;;;;;;;;;5020906;28;20213;-86
2022/04/18 05:20:09;;;;;;;8.17;7.03;;;;;;;;;;5020841;28;20204;-87
2022/04/18 05:22:37;;;;;;;7.37;6.67;;;;;;;;;;5020084;28;20304;-86
2022/04/18 05:25:06;;;;;;;6.40;5.80;;;;;;;;;;5019938;28;20320;-86
2022/04/18 05:27:35;;;;;;;7.37;6.67;;;;;;;;;;5020459;28;20208;-86
2022/04/18 05:30:04;;;;;;;8.40;7.53;;;;;;;;;;5019886;28;20208;-87
2022/04/18 05:32:32;;;;;;;6.87;6.03;;;;;;;;;;5019689;28;20232;-86
2022/04/18 05:35:01;;;;;;;5.47;4.97;;;;;;;;;;5019844;28;20212;-86
2022/04/18 05:37:31;;;;;;;6.10;5.57;;;;;;;;;;5019724;28;20202;-86
2022/04/18 05:39:59;;;;;;;9.13;6.80;;;;;;;;;;5037250;28;20194;-86
2022/04/18 05:42:28;;;;;;;8.83;7.30;;;;;;;;;;5037330;28;20260;-86
2022/04/18 05:44:57;;;;;;;7.40;6.70;;;;;;;;;;5020490;28;20308;-87
2022/04/18 05:47:26;;;;;;;7.13;6.43;;;;;;;;;;5019125;28;20292;-87
2022/04/18 05:49:54;;;;;;;6.47;5.87;;;;;;;;;;5018985;28;20301;-86
2022/04/18 05:52:23;;;;;;;5.23;4.63;;;;;;;;;;5018918;28;20202;-88
2022/04/18 05:54:53;;;;;;;6.10;5.00;;;;;;;;;;5019015;28;20225;-86
2022/04/18 05:57:22;;;;;;;7.73;7.10;;;;;;;;;;5018791;28;20217;-86
2022/04/18 05:59:50;;;;;;;9.10;5.87;;;;;;;;;;5035451;28;20245;-86
2022/04/18 06:02:19;;;;;;;5.67;5.07;;;;;;;;;;5055785;28;20313;-86
2022/04/18 06:04:48;;;;;;;5.90;5.30;;;;;;;;;;5038387;28;20230;-86
2022/04/18 06:07:16;;;;;;;9.20;6.63;;;;;;;;;;5038329;28;20202;-86
2022/04/18 06:09:45;;;;;;;4.33;3.70;;;;;;;;;;5055327;28;20245;-86
2022/04/18 06:12:20;;;;;;;7.03;6.33;;;;;;;;;;5038033;28;20212;-86
2022/04/18 06:14:48;;;;;;;6.90;6.20;;;;;;;;;;5037628;28;20232;-87
2022/04/18 06:17:17;;;;;;;7.03;6.43;;;;;;;;;;5037452;28;20206;-86
2022/04/18 06:19:45;;;;;;;7.63;7.03;;;;;;;;;;5037311;28;20236;-87
2022/04/18 06:22:15;;;;;;;6.43;5.93;;;;;;;;;;5037762;28;20228;-86
2022/04/18 06:24:43;;;;;;;5.33;4.83;;;;;;;;;;5037493;28;20210;-87
2022/04/18 06:27:12;;;;;;;7.67;6.43;;;;;;;;;;5038291;28;20260;-86
2022/04/18 06:29:42;;;;;;;6.73;6.07;;;;;;;;;;5037734;28;20233;-86
2022/04/18 06:32:11;;;;;;;8.07;6.90;;;;;;;;;;5037704;28;20205;-86
2022/04/18 06:34:46;;;;;;;7.17;6.57;;;;;;;;;;5038051;28;20297;-87
2022/04/18 06:37:15;;;;;;;6.57;5.87;;;;;;;;;;5037590;28;20224;-86
2022/04/18 06:39:44;;;;;;;5.63;5.20;;;;;;;;;;5037172;28;20213;-86
2022/04/18 06:42:13;;;;;;;6.33;5.63;;;;;;;;;;5036864;28;20206;-86
2022/04/18 06:44:42;;;;;;;5.00;4.60;;;;;;;;;;5036886;28;20214;-87
2022/04/18 06:47:11;;;;;;;4.97;4.53;;;;;;;;;;5037309;28;20213;-86
2022/04/18 06:49:40;;;;;;;5.60;5.10;;;;;;;;;;5036283;28;20222;-86
2022/04/18 06:52:09;;;;;;;5.77;5.17;;;;;;;;;;5036618;28;20260;-87
2022/04/18 06:54:38;;;;;;;6.23;5.37;;;;;;;;;;5037436;28;20252;-86
2022/04/18 06:57:07;;;;;;;6.73;6.13;;;;;;;;;;5037425;28;20249;-86
2022/04/18 06:59:36;;;;;;;6.33;5.70;;;;;;;;;;5039719;28;20203;-86
2022/04/18 07:02:06;;;;;;;5.73;5.23;;;;;;;;;;5034015;28;20207;-86
2022/04/18 07:04:35;;;;;;;6.13;5.53;;;;;;;;;;5017232;28;20203;-86
2022/04/18 07:07:09;;;;;;;6.23;5.63;;;;;;;;;;5034483;28;20218;-87
2022/04/18 07:09:37;;;;;;;6.43;5.60;;;;;;;;;;5033349;28;20199;-87
2022/04/18 07:12:06;;;;;;;6.70;6.10;;;;;;;;;;5033559;28;20203;-86
2022/04/18 07:14:36;;;;;;;2.13;1.90;;;;;;;;;;5016718;28;20236;-86
2022/04/18 07:17:07;;;;;;;2.70;2.53;;;;;;;;;;5033769;28;20298;-86
2022/04/18 07:19:36;;;;;;;6.03;4.73;;;;;;;;;;5034137;28;20254;-86
2022/04/18 07:22:04;;;;;;;6.47;5.70;;;;;;;;;;5033097;28;20203;-87
2022/04/18 07:24:33;;;;;;;6.50;5.90;;;;;;;;;;5016717;28;20211;-86
2022/04/18 07:27:02;;;;;;;4.37;3.63;;;;;;;;;;5016854;28;20203;-86
2022/04/18 07:29:32;;;;;;;6.00;5.43;;;;;;;;;;5016428;28;20218;-86
2022/04/18 07:32:01;;;;;;;6.37;5.77;;;;;;;;;;5034744;28;20206;-87
2022/04/18 07:34:33;;;;;;;5.43;4.93;;;;;;;;;;5020163;28;20287;-86
2022/04/18 07:37:01;;;;;;;3.97;3.60;;;;;;;;;;5036316;28;20205;-87
2022/04/18 07:39:30;;;;;;;4.23;3.90;;;;;;;;;;5036156;28;20203;-86
2022/04/18 07:41:58;;;;;;;5.47;5.07;;;;;;;;;;5036257;28;20298;-86
2022/04/18 07:44:27;;;;;;;6.03;5.40;;;;;;;;;;5036259;28;20282;-86
2022/04/18 07:46:56;;;;;;;5.37;4.87;;;;;;;;;;5037371;28;20202;-87
2022/04/18 07:49:24;;;;;;;6.17;5.57;;;;;;;;;;5036479;28;20203;-86
2022/04/18 07:51:54;;;;;;;7.70;5.60;;;;;;;;;;5035998;28;20203;-84
2022/04/18 07:54:23;;;;;;;4.70;4.30;;;;;;;;;;5036745;28;20286;-87
2022/04/18 07:56:52;;;;;;;5.97;5.47;;;;;;;;;;5019398;28;20199;-87
2022/04/18 07:59:22;;;;;;;5.60;5.07;;;;;;;;;;5019336;28;20203;-87
2022/04/18 08:01:50;;;;;;;5.63;4.87;;;;;;;;;;5019391;28;20254;-86
2022/04/18 08:04:19;;;;;;;5.47;5.03;;;;;;;;;;5019337;28;20199;-87
2022/04/18 08:06:47;;;;;;;6.20;4.30;;;;;;;;;;5019732;28;20260;-86
2022/04/18 08:09:17;;;;;;;6.40;5.50;;;;;;;;;;5019956;28;20208;-87
2022/04/18 08:11:46;;;;;;;5.07;4.57;;;;;;;;;;5019971;28;20246;-87
2022/04/18 08:14:15;;;;;;;5.07;4.33;;;;;;;;;;5008355;28;20256;-87
2022/04/18 08:16:43;;;;;;;6.13;3.77;;;;;;;;;;5000602;28;20288;-87
2022/04/18 08:19:12;;;;;;;3.30;3.00;;;;;;;;;;4999968;28;20216;-87
2022/04/18 08:21:41;;;;;;;4.23;3.80;;;;;;;;;;4999836;28;20209;-86
2022/04/18 08:24:09;;;;;;;5.93;5.40;;;;;;;;;;5000095;28;20222;-87
2022/04/18 08:26:40;;;;;;;5.43;3.83;;;;;;;;;;4999994;28;20213;-87
2022/04/18 08:29:08;;;;;;;6.13;4.73;;;;;;;;;;4999572;28;20233;-86
2022/04/18 08:31:37;;;;;;;4.17;3.70;;;;;;;;;;4999551;28;20305;-87
2022/04/18 08:34:10;;;;;;;5.30;4.67;;;;;;;;;;4999605;28;20203;-87
2022/04/18 08:36:39;;;;;;;4.63;4.23;;;;;;;;;;4999564;28;20229;-87
2022/04/18 08:39:07;;;;;;;4.70;4.30;;;;;;;;;;4999886;28;20206;-87
2022/04/18 08:41:38;;;;;;;4.27;3.97;;;;;;;;;;4999886;28;20205;-87
2022/04/18 08:44:09;;;;;;;3.47;3.00;;;;;;;;;;5016221;28;20203;-87
2022/04/18 08:46:38;;;;;;;4.40;4.00;;;;;;;;;;4999515;28;20225;-87
2022/04/18 08:54:41;;;;;;;5.00;4.20;;;;;;;;;;4999007;28;20202;-87
2022/04/18 08:57:09;;;;;;;4.83;3.70;;;;;;;;;;4999185;28;20199;-87
2022/04/18 08:59:39;;;;;;;4.50;4.00;;;;;;;;;;4999069;28;20294;-87
2022/04/18 09:02:08;;;;;;;3.97;3.53;;;;;;;;;;5016019;28;20207;-87
2022/04/18 09:04:36;;;;;;;3.63;2.93;;;;;;;;;;4998675;28;20207;-87
2022/04/18 09:07:11;;;;;;;2.90;2.70;;;;;;;;;;5014430;28;20246;-87
2022/04/18 09:09:41;;;;;;;4.10;3.70;;;;;;;;;;5015353;28;20203;-87
2022/04/18 09:12:18;;;;;;;4.33;3.93;;;;;;;;;;5014248;28;20204;-87
2022/04/18 09:14:50;;;;;;;4.10;3.00;;;;;;;;;;5029329;28;20230;-87
2022/04/18 09:17:29;;;;;;;4.00;3.60;;;;;;;;;;5034561;28;20199;-87
2022/04/18 09:20:08;;;;;;;3.57;3.27;;;;;;;;;;5017678;28;20202;-87
2022/04/18 09:22:43;;;;;;;5.57;3.30;;;;;;;;;;5035012;28;20214;-87
2022/04/18 09:25:16;;;;;;;4.30;4.00;;;;;;;;;;5017617;28;20203;-87
2022/04/18 09:27:49;;;;;;;3.63;3.33;;;;;;;;;;5033747;28;20195;-87
2022/04/18 09:30:19;;;;;;;2.97;1.97;;;;;;;;;;5033654;28;20206;-87
2022/04/18 09:32:56;;;;;;;3.83;3.53;;;;;;;;;;5033703;28;20294;-87
2022/04/18 09:35:26;;;;;;;4.53;3.87;;;;;;;;;;5017138;28;20290;-87
2022/04/18 09:37:55;;;;;;;4.53;4.07;;;;;;;;;;5016980;28;20262;-87
2022/04/18 09:40:24;;;;;;;4.20;3.90;;;;;;;;;;5033489;28;20223;-87
2022/04/18 09:42:54;;;;;;;5.47;3.50;;;;;;;;;;5016989;28;20207;-87
2022/04/18 09:45:24;;;;;;;3.90;3.60;;;;;;;;;;5017066;28;20205;-87
2022/04/18 09:47:56;;;;;;;4.43;3.33;;;;;;;;;;5033294;28;20231;-87
2022/04/18 09:53:17;;;;;;;4.70;4.30;;;;;;;;;;5016524;28;20203;-87
2022/04/18 09:55:47;;;;;;;3.73;3.37;;;;;;;;;;5033666;28;20207;-87
2022/04/18 09:58:15;;;;;;;4.40;4.00;;;;;;;;;;5036086;28;20199;-87
2022/04/18 10:01:06;;;;;;;4.17;3.87;;;;;;;;;;5036447;28;20202;-87
2022/04/18 10:03:35;;;;;;;3.87;3.47;;;;;;;;;;5036216;28;20194;-87
2022/04/18 10:06:04;;;;;;;4.70;4.00;;;;;;;;;;5036072;28;20226;-87
2022/04/18 10:08:33;;;;;;;1.87;1.77;;;;;;;;;;5036240;28;20205;-87
2022/04/18 10:11:02;;;;;;;3.20;2.90;;;;;;;;;;5036057;28;20198;-87
2022/04/18 10:13:32;;;;;;;4.23;3.60;;;;;;;;;;5053491;28;20206;-87
2022/04/18 10:27:25;;;;;;;5.27;3.93;;;;;;;;;;6224011;22;169608;-86
2022/04/18 10:29:55;;;;;;;5.13;3.77;;;;;;;;;;6228252;23;20186;-86
2022/04/18 10:32:25;;;;;;;4.67;3.97;;;;;;;;;;6228308;23;20173;-86
2022/04/18 10:34:54;;;;;;;4.00;3.60;;;;;;;;;;6227889;23;20200;-86
2022/04/18 10:37:26;;;;;;;4.60;4.03;;;;;;;;;;6227804;23;20223;-86
2022/04/18 10:39:59;;;;;;;4.27;3.87;;;;;;;;;;6227958;23;20201;-86
2022/04/18 10:42:31;;;;;;;2.87;2.63;;;;;;;;;;6227409;23;20263;-86
2022/04/18 10:45:02;;;;;;;4.93;4.50;;;;;;;;;;6227825;23;20204;-86
2022/04/18 10:47:49;;;;;;;4.00;3.57;;;;;;;;;;6228165;23;20176;-86
2022/04/18 10:50:18;;;;;;;2.57;2.37;;;;;;;;;;6228044;23;20190;-86
2022/04/18 10:53:02;;;;;;;5.27;3.20;;;;;;;;;;6227754;23;20212;-86
2022/04/18 10:55:30;;;;;;;4.90;4.40;;;;;;;;;;6227177;23;20194;-86
2022/04/18 10:58:12;;;;;;;4.87;4.30;;;;;;;;;;6227714;23;20175;-86
2022/04/18 11:00:49;;;;;;;3.60;3.30;;;;;;;;;;6227748;23;20174;-86
2022/04/18 11:03:32;;;;;;;6.73;3.87;;;;;;;;;;6227923;23;20183;-86
2022/04/18 11:06:01;;;;;;;3.37;2.83;;;;;;;;;;6226981;23;20190;-86
2022/04/18 11:08:31;;;;;;;2.27;2.07;;;;;;;;;;6227715;23;20179;-86
2022/04/18 11:11:04;;;;;;;5.47;4.87;;;;;;;;;;6227665;23;20254;-87
2022/04/18 11:13:33;;;;;;;4.33;3.53;;;;;;;;;;6227496;23;20177;-86
2022/04/18 11:16:27;;;;;;;3.30;3.00;;;;;;;;;;6227369;23;20263;-86
2022/04/18 11:19:08;;;;;;;1.33;0.77;;;;;;;;;;6227627;23;20186;-86
2022/04/18 11:21:56;;;;;;;5.37;4.97;;;;;;;;;;6227821;23;20173;-86
2022/04/18 11:24:34;;;;;;;9.03;1.87;;;;;;;;;;6254024;23;20259;-87
2022/04/18 11:27:04;;;;;;;4.23;3.93;;;;;;;;;;6222914;23;20292;-86
2022/04/18 11:29:32;;;;;;;4.30;3.87;;;;;;;;;;6220972;23;20179;-86
2022/04/18 11:32:02;;;;;;;4.27;3.87;;;;;;;;;;6220759;23;20178;-86
2022/04/18 11:34:32;;;;;;;5.17;4.30;;;;;;;;;;6220613;23;20185;-87
2022/04/18 11:37:01;;;;;;;4.07;3.57;;;;;;;;;;6220621;23;20276;-86
2022/04/18 11:39:43;;;;;;;1.90;1.80;;;;;;;;;;6220997;23;20182;-86
2022/04/18 11:42:15;;;;;;;10.23;4.50;;;;;;;;;;6220120;23;20178;-86
2022/04/18 11:44:45;;;;;;;5.30;4.27;;;;;;;;;;6220800;23;20261;-86
2022/04/18 11:47:16;;;;;;;4.23;3.10;;;;;;;;;;6220720;23;20183;-86
2022/04/18 11:49:45;;;;;;;3.83;2.20;;;;;;;;;;6220718;23;20179;-86
2022/04/18 11:52:21;;;;;;;5.13;4.70;;;;;;;;;;6220765;23;20214;-86
2022/04/18 11:54:56;;;;;;;4.60;4.20;;;;;;;;;;6246865;23;20169;-86
2022/04/18 11:57:24;;;;;;;4.97;4.57;;;;;;;;;;6220462;23;20169;-86
2022/04/18 11:59:53;;;;;;;4.97;4.47;;;;;;;;;;6220561;23;20209;-86
2022/04/18 12:08:06;;;;;;;4.10;2.73;;;;;;;;;;6246640;23;20190;-87
2022/04/18 12:10:36;;;;;;;3.30;2.87;;;;;;;;;;6219815;23;20196;-86
2022/04/18 12:13:06;;;;;;;2.37;2.13;;;;;;;;;;6220023;23;20178;-86
2022/04/18 12:15:35;;;;;;;2.63;2.43;;;;;;;;;;6220397;23;20190;-86
2022/04/18 12:18:13;;;;;;;2.57;2.37;;;;;;;;;;6219885;23;20258;-86
2022/04/18 12:20:42;;;;;;;1.83;1.47;;;;;;;;;;6219637;23;20174;-86
2022/04/18 12:23:11;;;;;;;1.17;1.17;;;;;;;;;;6219543;23;20178;-87
2022/04/18 12:25:44;;;;;;;1.60;0.93;;;;;;;;;;6214691;23;20212;-86
2022/04/18 12:28:13;;;;;;;0.70;0.70;;;;;;;;;;6239977;23;20204;-86
2022/04/18 12:30:42;;;;;;;3.60;3.23;;;;;;;;;;6215028;23;20183;-86
2022/04/18 12:33:16;;;;;;;4.57;4.17;;;;;;;;;;6214643;23;20234;-86
2022/04/18 12:35:48;;;;;;;2.60;2.40;;;;;;;;;;6214820;23;20197;-86
2022/04/18 12:38:17;;;;;;;2.57;2.30;;;;;;;;;;6215513;23;20189;-87
2022/04/18 12:40:46;;;;;;;5.57;5.13;;;;;;;;;;6214755;23;20202;-87
2022/04/18 12:43:15;;;;;;;5.13;4.63;;;;;;;;;;6214716;23;20180;-86
2022/04/18 12:45:45;;;;;;;3.83;3.27;;;;;;;;;;6215300;23;20168;-86
2022/04/18 12:48:15;;;;;;;5.63;3.00;;;;;;;;;;6214520;23;20256;-86
2022/04/18 12:50:45;;;;;;;3.00;2.47;;;;;;;;;;6215166;23;20178;-86
2022/04/18 12:53:14;;;;;;;4.80;4.07;;;;;;;;;;6215854;23;20175;-87
2022/04/18 12:55:42;;;;;;;0.80;0.80;;;;;;;;;;6214348;23;20171;-86
2022/04/18 12:58:21;;;;;;;2.17;1.57;;;;;;;;;;6214031;23;20216;-87
2022/04/18 13:00:50;;;;;;;3.77;3.47;;;;;;;;;;6215672;23;20185;-87
2022/04/18 13:03:21;;;;;;;3.53;2.90;;;;;;;;;;6215329;23;20174;-86
2022/04/18 13:05:50;;;;;;;3.47;1.83;;;;;;;;;;6214297;23;20227;-87
2022/04/18 13:08:19;;;;;;;1.83;1.57;;;;;;;;;;6214453;23;20180;-87
2022/04/18 13:10:48;;;;;;;2.20;1.87;;;;;;;;;;6214245;23;20184;-86
2022/04/18 13:13:17;;;;;;;2.50;2.40;;;;;;;;;;6214364;23;20205;-87
2022/04/18 13:15:46;;;;;;;1.87;1.77;;;;;;;;;;6213903;23;20182;-87
2022/04/18 13:18:22;;;;;;;4.70;3.83;;;;;;;;;;6214232;23;20175;-86
2022/04/18 13:20:50;;;;;;;3.87;3.53;;;;;;;;;;6214118;23;20187;-88
2022/04/18 13:23:19;;;;;;;2.77;2.50;;;;;;;;;;6214244;23;20177;-86
2022/04/18 13:25:48;;;;;;;1.43;1.33;;;;;;;;;;6214209;23;20238;-87
2022/04/18 13:28:17;;;;;;;2.87;2.67;;;;;;;;;;6214210;23;20181;-87
2022/04/18 13:30:47;;;;;;;0.90;0.90;;;;;;;;;;6214429;23;20210;-87
2022/04/18 13:33:16;;;;;;;1.03;1.03;;;;;;;;;;6215658;23;20208;-86
2022/04/18 13:38:28;;;;;;;2.23;1.97;;;;;;;;;;6189488;23;20178;-87
2022/04/18 13:40:56;;;;;;;3.77;2.80;;;;;;;;;;6214301;23;20179;-86
2022/04/18 13:43:25;;;;;;;2.87;2.43;;;;;;;;;;6214168;23;20181;-87
2022/04/18 13:45:53;;;;;;;1.80;1.33;;;;;;;;;;6213960;23;20175;-87
2022/04/18 13:48:22;;;;;;;2.93;2.73;;;;;;;;;;6214070;23;20191;-87
2022/04/18 13:50:52;;;;;;;3.77;3.47;;;;;;;;;;6215251;23;20184;-87
2022/04/18 13:53:20;;;;;;;2.53;2.33;;;;;;;;;;6213818;23;20277;-87
2022/04/18 13:55:49;;;;;;;0.33;0.33;;;;;;;;;;6214429;23;20179;-86
2022/04/18 13:58:18;;;;;;;1.43;1.33;;;;;;;;;;6213993;23;20196;-86
2022/04/18 14:00:46;;;;;;;1.20;1.10;;;;;;;;;;6213929;23;20175;-87
2022/04/18 14:03:15;;;;;;;1.87;1.77;;;;;;;;;;6214008;23;20179;-87
2022/04/18 14:05:43;;;;;;;2.93;1.40;;;;;;;;;;6213811;23;20217;-87
2022/04/18 14:08:14;;;;;;;2.60;2.40;;;;;;;;;;6213864;23;20178;-87
2022/04/18 14:10:42;;;;;;;0.80;0.80;;;;;;;;;;6214125;23;20170;-87
2022/04/18 14:13:11;;;;;;;0.50;0.50;;;;;;;;;;6213902;23;20386;-87
2022/04/18 14:21:14;;;;;;;2.83;2.53;;;;;;;;;;6213495;23;20181;-86
2022/04/18 14:23:44;;;;;;;3.13;2.60;;;;;;;;;;6214303;23;20241;-87
2022/04/18 14:26:12;;;;;;;2.07;1.97;;;;;;;;;;6225720;23;20204;-86
2022/04/18 14:28:41;;;;;;;1.80;1.70;;;;;;;;;;6218529;23;20174;-87
2022/04/18 14:31:09;;;;;;;2.97;2.23;;;;;;;;;;6218781;23;20179;-87
2022/04/18 14:33:38;;;;;;;2.60;2.40;;;;;;;;;;6218445;23;20180;-87
2022/04/18 14:36:07;;;;;;;1.30;1.17;;;;;;;;;;6218851;23;20183;-87
2022/04/18 14:38:36;;;;;;;3.17;2.90;;;;;;;;;;6219067;23;20220;-87
2022/04/18 14:41:06;;;;;;;0.97;0.97;;;;;;;;;;6245267;23;20190;-86
2022/04/18 14:43:34;;;;;;;3.83;2.20;;;;;;;;;;6219379;23;20260;-87
2022/04/18 14:46:03;;;;;;;1.00;1.00;;;;;;;;;;6218475;23;20175;-86
2022/04/18 14:48:31;;;;;;;0.60;0.60;;;;;;;;;;6219625;23;20184;-85
2022/04/18 14:51:00;;;;;;;1.43;1.33;;;;;;;;;;6218297;23;20175;-86
2022/04/18 14:53:28;;;;;;;1.17;1.13;;;;;;;;;;6218433;23;20188;-87
2022/04/18 14:55:57;;;;;;;4.57;4.37;;;;;;;;;;6218732;23;20174;-87
2022/04/18 14:58:26;;;;;;;1.13;1.13;;;;;;;;;;6245248;23;20195;-87
2022/04/18 15:00:56;;;;;;;2.50;2.27;;;;;;;;;;6245711;23;20193;-87
2022/04/18 15:03:25;;;;;;;2.83;2.20;;;;;;;;;;6220520;23;20174;-86
2022/04/18 15:05:54;;;;;;;2.20;1.47;;;;;;;;;;6246965;23;20197;-87
2022/04/18 15:08:22;;;;;;;2.27;2.17;;;;;;;;;;6220761;23;20268;-87
2022/04/18 15:10:51;;;;;;;1.50;1.40;;;;;;;;;;6220729;23;20171;-86
2022/04/18 15:13:19;;;;;;;2.10;1.87;;;;;;;;;;6220635;23;20182;-87
2022/04/18 15:15:54;;;;;;;2.53;2.33;;;;;;;;;;6220057;23;20262;-86
2022/04/18 15:18:23;;;;;;;4.13;3.10;;;;;;;;;;6220438;23;20195;-86
2022/04/18 15:20:51;;;;;;;3.47;2.73;;;;;;;;;;6247285;23;20173;-86
2022/04/18 15:23:20;;;;;;;3.27;2.23;;;;;;;;;;6220185;23;20257;-87
2022/04/18 15:25:48;;;;;;;0.60;0.60;;;;;;;;;;6220621;23;20225;-86
2022/04/18 15:28:17;;;;;;;1.93;1.83;;;;;;;;;;6246676;23;20173;-87
2022/04/18 15:33:32;;;;;;;2.43;2.23;;;;;;;;;;6220368;23;20218;-87
2022/04/18 15:36:01;;;;;;;2.40;2.20;;;;;;;;;;6220072;23;20258;-87
2022/04/18 15:38:29;;;;;;;2.13;1.93;;;;;;;;;;6220288;23;20236;-87
2022/04/18 15:40:58;;;;;;;0.93;0.90;;;;;;;;;;6220353;23;20176;-87
2022/04/18 15:43:26;;;;;;;2.93;2.37;;;;;;;;;;6219905;23;20175;-86